sensor_id;sensor_type;location;lat;lon;timestamp;P1;durP1;ratioP1;P2;durP2;ratioP2
76463;SDS011;65301;46.666;20.110;2022-12-11T00:00:43;3.38;;;1.65;;
76463;SDS011;65301;46.666;20.110;2022-12-11T00:03:45;2.00;;;1.90;;
76463;SDS011;65301;46.666;20.110;2022-12-11T00:06:47;2.10;;;1.90;;
76463;SDS011;65301;46.666;20.110;2022-12-11T00:09:50;2.08;;;1.92;;
76463;SDS011;65301;46.666;20.110;2022-12-11T00:12:52;2.03;;;1.60;;
76463;SDS011;65301;46.666;20.110;2022-12-11T00:15:54;1.70;;;1.45;;
76463;SDS011;65301;46.666;20.110;2022-12-11T00:18:58;1.50;;;1.37;;
76463;SDS011;65301;46.666;20.110;2022-12-11T00:22:00;1.37;;;1.30;;
76463;SDS011;65301;46.666;20.110;2022-12-11T00:25:01;3.17;;;2.30;;
76463;SDS011;65301;46.666;20.110;2022-12-11T00:28:03;3.15;;;2.33;;
76463;SDS011;65301;46.666;20.110;2022-12-11T00:31:06;4.97;;;3.58;;
76463;SDS011;65301;46.666;20.110;2022-12-11T00:34:08;2.73;;;1.83;;
76463;SDS011;65301;46.666;20.110;2022-12-11T00:37:12;2.20;;;2.03;;
76463;SDS011;65301;46.666;20.110;2022-12-11T00:40:14;1.65;;;1.55;;
76463;SDS011;65301;46.666;20.110;2022-12-11T00:43:16;1.92;;;1.75;;
76463;SDS011;65301;46.666;20.110;2022-12-11T00:46:18;1.90;;;1.80;;
76463;SDS011;65301;46.666;20.110;2022-12-11T00:49:19;1.50;;;1.40;;
76463;SDS011;65301;46.666;20.110;2022-12-11T00:52:21;2.97;;;1.83;;
76463;SDS011;65301;46.666;20.110;2022-12-11T00:55:23;2.45;;;2.10;;
76463;SDS011;65301;46.666;20.110;2022-12-11T00:58:26;3.63;;;2.25;;
76463;SDS011;65301;46.666;20.110;2022-12-11T01:01:28;2.63;;;2.40;;
76463;SDS011;65301;46.666;20.110;2022-12-11T01:04:30;2.63;;;2.40;;
76463;SDS011;65301;46.666;20.110;2022-12-11T01:07:31;2.37;;;2.17;;
76463;SDS011;65301;46.666;20.110;2022-12-11T01:10:33;2.50;;;2.25;;
76463;SDS011;65301;46.666;20.110;2022-12-11T01:13:36;3.25;;;2.30;;
76463;SDS011;65301;46.666;20.110;2022-12-11T01:16:38;2.80;;;2.20;;
76463;SDS011;65301;46.666;20.110;2022-12-11T01:19:40;2.83;;;2.47;;
76463;SDS011;65301;46.666;20.110;2022-12-11T01:22:42;2.63;;;1.93;;
76463;SDS011;65301;46.666;20.110;2022-12-11T01:25:43;2.92;;;2.17;;
76463;SDS011;65301;46.666;20.110;2022-12-11T01:28:47;2.20;;;2.00;;
76463;SDS011;65301;46.666;20.110;2022-12-11T01:31:51;3.17;;;2.42;;
76463;SDS011;65301;46.666;20.110;2022-12-11T01:34:53;2.57;;;2.03;;
76463;SDS011;65301;46.666;20.110;2022-12-11T01:37:55;2.50;;;2.10;;
76463;SDS011;65301;46.666;20.110;2022-12-11T01:40:56;2.50;;;2.30;;
76463;SDS011;65301;46.666;20.110;2022-12-11T01:44:00;2.42;;;2.22;;
76463;SDS011;65301;46.666;20.110;2022-12-11T01:47:04;2.80;;;2.05;;
76463;SDS011;65301;46.666;20.110;2022-12-11T01:50:08;2.53;;;1.93;;
76463;SDS011;65301;46.666;20.110;2022-12-11T01:53:11;1.47;;;1.37;;
76463;SDS011;65301;46.666;20.110;2022-12-11T01:56:17;2.40;;;1.73;;
76463;SDS011;65301;46.666;20.110;2022-12-11T01:59:20;1.88;;;1.50;;
76463;SDS011;65301;46.666;20.110;2022-12-11T02:02:25;1.65;;;1.55;;
76463;SDS011;65301;46.666;20.110;2022-12-11T02:05:30;1.70;;;1.40;;
76463;SDS011;65301;46.666;20.110;2022-12-11T02:08:32;1.30;;;1.20;;
76463;SDS011;65301;46.666;20.110;2022-12-11T02:11:35;1.58;;;1.48;;
76463;SDS011;65301;46.666;20.110;2022-12-11T02:14:54;2.00;;;1.20;;
76463;SDS011;65301;46.666;20.110;2022-12-11T02:21:38;1.80;;;1.30;;
76463;SDS011;65301;46.666;20.110;2022-12-11T02:31:13;1.38;;;1.35;;
76463;SDS011;65301;46.666;20.110;2022-12-11T02:34:22;2.25;;;0.90;;
76463;SDS011;65301;46.666;20.110;2022-12-11T02:37:32;1.10;;;1.10;;
76463;SDS011;65301;46.666;20.110;2022-12-11T02:40:38;1.10;;;1.00;;
76463;SDS011;65301;46.666;20.110;2022-12-11T02:43:42;1.23;;;0.93;;
76463;SDS011;65301;46.666;20.110;2022-12-11T02:46:45;1.58;;;0.98;;
76463;SDS011;65301;46.666;20.110;2022-12-11T02:49:48;1.00;;;1.00;;
76463;SDS011;65301;46.666;20.110;2022-12-11T02:52:52;1.07;;;1.00;;
76463;SDS011;65301;46.666;20.110;2022-12-11T02:55:59;1.80;;;1.70;;
76463;SDS011;65301;46.666;20.110;2022-12-11T02:59:14;1.60;;;1.13;;
76463;SDS011;65301;46.666;20.110;2022-12-11T03:02:22;1.75;;;1.65;;
76463;SDS011;65301;46.666;20.110;2022-12-11T03:05:24;1.50;;;1.40;;
76463;SDS011;65301;46.666;20.110;2022-12-11T03:08:27;4.57;;;2.50;;
76463;SDS011;65301;46.666;20.110;2022-12-11T03:11:29;2.27;;;2.10;;
76463;SDS011;65301;46.666;20.110;2022-12-11T03:14:30;1.50;;;1.40;;
76463;SDS011;65301;46.666;20.110;2022-12-11T03:20:44;1.85;;;1.73;;
76463;SDS011;65301;46.666;20.110;2022-12-11T03:24:01;2.40;;;1.50;;
76463;SDS011;65301;46.666;20.110;2022-12-11T03:27:14;1.60;;;1.50;;
76463;SDS011;65301;46.666;20.110;2022-12-11T03:30:27;1.65;;;1.55;;
76463;SDS011;65301;46.666;20.110;2022-12-11T03:33:30;1.63;;;1.50;;
76463;SDS011;65301;46.666;20.110;2022-12-11T03:36:36;1.90;;;1.80;;
76463;SDS011;65301;46.666;20.110;2022-12-11T03:39:45;2.07;;;1.77;;
76463;SDS011;65301;46.666;20.110;2022-12-11T03:42:51;1.80;;;1.70;;
76463;SDS011;65301;46.666;20.110;2022-12-11T03:45:53;2.15;;;1.80;;
76463;SDS011;65301;46.666;20.110;2022-12-11T03:48:58;2.25;;;1.90;;
76463;SDS011;65301;46.666;20.110;2022-12-11T03:52:03;2.60;;;1.80;;
76463;SDS011;65301;46.666;20.110;2022-12-11T03:55:06;2.20;;;2.00;;
76463;SDS011;65301;46.666;20.110;2022-12-11T03:58:10;2.47;;;1.90;;
76463;SDS011;65301;46.666;20.110;2022-12-11T04:01:12;4.75;;;3.85;;
76463;SDS011;65301;46.666;20.110;2022-12-11T04:04:14;7.40;;;5.10;;
76463;SDS011;65301;46.666;20.110;2022-12-11T04:07:16;5.95;;;5.15;;
76463;SDS011;65301;46.666;20.110;2022-12-11T04:10:17;8.60;;;5.70;;
76463;SDS011;65301;46.666;20.110;2022-12-11T04:13:19;10.10;;;6.20;;
76463;SDS011;65301;46.666;20.110;2022-12-11T04:16:20;8.02;;;5.63;;
76463;SDS011;65301;46.666;20.110;2022-12-11T04:19:22;8.63;;;5.85;;
76463;SDS011;65301;46.666;20.110;2022-12-11T04:22:43;9.60;;;6.35;;
76463;SDS011;65301;46.666;20.110;2022-12-11T04:26:13;8.17;;;5.73;;
76463;SDS011;65301;46.666;20.110;2022-12-11T04:29:17;8.17;;;5.40;;
76463;SDS011;65301;46.666;20.110;2022-12-11T04:32:18;8.73;;;5.40;;
76463;SDS011;65301;46.666;20.110;2022-12-11T04:35:20;7.97;;;5.10;;
76463;SDS011;65301;46.666;20.110;2022-12-11T04:38:22;6.35;;;4.50;;
76463;SDS011;65301;46.666;20.110;2022-12-11T04:41:24;9.27;;;5.57;;
76463;SDS011;65301;46.666;20.110;2022-12-11T04:44:26;9.13;;;5.37;;
76463;SDS011;65301;46.666;20.110;2022-12-11T04:47:27;10.10;;;5.70;;
76463;SDS011;65301;46.666;20.110;2022-12-11T04:50:29;8.27;;;5.72;;
76463;SDS011;65301;46.666;20.110;2022-12-11T04:53:30;7.47;;;4.97;;
76463;SDS011;65301;46.666;20.110;2022-12-11T04:56:32;8.87;;;5.60;;
76463;SDS011;65301;46.666;20.110;2022-12-11T04:59:34;7.73;;;5.87;;
76463;SDS011;65301;46.666;20.110;2022-12-11T05:02:37;9.40;;;5.82;;
76463;SDS011;65301;46.666;20.110;2022-12-11T05:05:45;8.40;;;5.63;;
76463;SDS011;65301;46.666;20.110;2022-12-11T05:08:51;6.93;;;5.43;;
76463;SDS011;65301;46.666;20.110;2022-12-11T05:11:54;8.07;;;6.13;;
76463;SDS011;65301;46.666;20.110;2022-12-11T05:14:55;7.70;;;5.37;;
76463;SDS011;65301;46.666;20.110;2022-12-11T05:17:57;10.35;;;6.15;;
76463;SDS011;65301;46.666;20.110;2022-12-11T05:20:59;9.95;;;5.47;;
76463;SDS011;65301;46.666;20.110;2022-12-11T05:24:03;7.90;;;5.63;;
76463;SDS011;65301;46.666;20.110;2022-12-11T05:27:04;10.43;;;6.77;;
76463;SDS011;65301;46.666;20.110;2022-12-11T05:30:06;10.00;;;6.30;;
76463;SDS011;65301;46.666;20.110;2022-12-11T05:33:10;10.02;;;6.15;;
76463;SDS011;65301;46.666;20.110;2022-12-11T05:36:16;8.50;;;5.78;;
76463;SDS011;65301;46.666;20.110;2022-12-11T05:39:19;8.20;;;5.75;;
76463;SDS011;65301;46.666;20.110;2022-12-11T05:42:21;8.77;;;6.30;;
76463;SDS011;65301;46.666;20.110;2022-12-11T05:45:29;8.13;;;5.77;;
76463;SDS011;65301;46.666;20.110;2022-12-11T05:48:30;9.70;;;5.97;;
76463;SDS011;65301;46.666;20.110;2022-12-11T05:51:32;11.98;;;6.80;;
76463;SDS011;65301;46.666;20.110;2022-12-11T05:54:35;10.15;;;5.70;;
76463;SDS011;65301;46.666;20.110;2022-12-11T05:57:36;13.83;;;7.13;;
76463;SDS011;65301;46.666;20.110;2022-12-11T06:00:40;9.63;;;6.37;;
76463;SDS011;65301;46.666;20.110;2022-12-11T06:03:42;10.93;;;6.78;;
76463;SDS011;65301;46.666;20.110;2022-12-11T06:06:44;8.45;;;5.53;;
76463;SDS011;65301;46.666;20.110;2022-12-11T06:09:45;8.70;;;6.00;;
76463;SDS011;65301;46.666;20.110;2022-12-11T06:12:47;10.33;;;5.83;;
76463;SDS011;65301;46.666;20.110;2022-12-11T06:15:49;11.67;;;6.33;;
76463;SDS011;65301;46.666;20.110;2022-12-11T06:18:50;9.45;;;5.60;;
76463;SDS011;65301;46.666;20.110;2022-12-11T06:21:58;9.95;;;5.63;;
76463;SDS011;65301;46.666;20.110;2022-12-11T06:25:00;8.52;;;5.75;;
76463;SDS011;65301;46.666;20.110;2022-12-11T06:28:01;9.77;;;6.07;;
76463;SDS011;65301;46.666;20.110;2022-12-11T06:31:03;8.23;;;6.37;;
76463;SDS011;65301;46.666;20.110;2022-12-11T06:34:05;9.15;;;5.57;;
76463;SDS011;65301;46.666;20.110;2022-12-11T06:37:07;10.15;;;6.15;;
76463;SDS011;65301;46.666;20.110;2022-12-11T06:40:08;10.85;;;6.28;;
76463;SDS011;65301;46.666;20.110;2022-12-11T06:43:12;11.03;;;7.23;;
76463;SDS011;65301;46.666;20.110;2022-12-11T06:46:15;12.73;;;6.47;;
76463;SDS011;65301;46.666;20.110;2022-12-11T06:49:18;11.38;;;6.65;;
76463;SDS011;65301;46.666;20.110;2022-12-11T06:52:20;11.48;;;6.55;;
76463;SDS011;65301;46.666;20.110;2022-12-11T06:55:25;10.27;;;6.68;;
76463;SDS011;65301;46.666;20.110;2022-12-11T06:58:27;12.07;;;6.53;;
76463;SDS011;65301;46.666;20.110;2022-12-11T07:01:29;11.57;;;6.37;;
76463;SDS011;65301;46.666;20.110;2022-12-11T07:04:31;10.23;;;6.43;;
76463;SDS011;65301;46.666;20.110;2022-12-11T07:07:33;13.50;;;7.65;;
76463;SDS011;65301;46.666;20.110;2022-12-11T07:10:37;11.15;;;6.90;;
76463;SDS011;65301;46.666;20.110;2022-12-11T07:13:39;10.73;;;6.47;;
76463;SDS011;65301;46.666;20.110;2022-12-11T07:16:42;11.83;;;7.20;;
76463;SDS011;65301;46.666;20.110;2022-12-11T07:19:44;11.43;;;7.22;;
76463;SDS011;65301;46.666;20.110;2022-12-11T07:22:46;13.93;;;8.90;;
76463;SDS011;65301;46.666;20.110;2022-12-11T07:25:47;16.17;;;7.43;;
76463;SDS011;65301;46.666;20.110;2022-12-11T07:28:49;13.07;;;7.67;;
76463;SDS011;65301;46.666;20.110;2022-12-11T07:31:51;13.47;;;8.47;;
76463;SDS011;65301;46.666;20.110;2022-12-11T07:34:53;13.40;;;8.05;;
76463;SDS011;65301;46.666;20.110;2022-12-11T07:37:55;11.07;;;7.63;;
76463;SDS011;65301;46.666;20.110;2022-12-11T07:41:00;10.95;;;8.05;;
76463;SDS011;65301;46.666;20.110;2022-12-11T07:44:05;13.27;;;7.63;;
76463;SDS011;65301;46.666;20.110;2022-12-11T07:47:07;12.50;;;7.00;;
76463;SDS011;65301;46.666;20.110;2022-12-11T07:50:09;13.20;;;7.45;;
76463;SDS011;65301;46.666;20.110;2022-12-11T07:53:11;13.25;;;7.60;;
76463;SDS011;65301;46.666;20.110;2022-12-11T07:56:13;12.70;;;8.07;;
76463;SDS011;65301;46.666;20.110;2022-12-11T07:59:16;12.93;;;7.97;;
76463;SDS011;65301;46.666;20.110;2022-12-11T08:02:17;13.03;;;7.57;;
76463;SDS011;65301;46.666;20.110;2022-12-11T08:05:19;13.60;;;7.57;;
76463;SDS011;65301;46.666;20.110;2022-12-11T08:08:21;13.65;;;8.45;;
76463;SDS011;65301;46.666;20.110;2022-12-11T08:11:22;14.23;;;7.53;;
76463;SDS011;65301;46.666;20.110;2022-12-11T08:14:25;19.13;;;10.30;;
76463;SDS011;65301;46.666;20.110;2022-12-11T08:17:26;12.40;;;8.23;;
76463;SDS011;65301;46.666;20.110;2022-12-11T08:20:36;20.48;;;12.82;;
76463;SDS011;65301;46.666;20.110;2022-12-11T08:23:39;15.18;;;8.98;;
76463;SDS011;65301;46.666;20.110;2022-12-11T08:26:41;13.18;;;8.15;;
76463;SDS011;65301;46.666;20.110;2022-12-11T08:29:43;11.53;;;7.17;;
76463;SDS011;65301;46.666;20.110;2022-12-11T08:32:46;12.33;;;7.13;;
76463;SDS011;65301;46.666;20.110;2022-12-11T08:35:47;10.85;;;6.70;;
76463;SDS011;65301;46.666;20.110;2022-12-11T08:38:49;10.95;;;6.60;;
76463;SDS011;65301;46.666;20.110;2022-12-11T08:41:51;9.50;;;5.85;;
76463;SDS011;65301;46.666;20.110;2022-12-11T08:44:53;8.97;;;5.97;;
76463;SDS011;65301;46.666;20.110;2022-12-11T08:47:55;9.90;;;6.30;;
76463;SDS011;65301;46.666;20.110;2022-12-11T08:51:01;11.70;;;7.93;;
76463;SDS011;65301;46.666;20.110;2022-12-11T08:54:04;15.25;;;8.05;;
76463;SDS011;65301;46.666;20.110;2022-12-11T08:57:06;12.43;;;8.32;;
76463;SDS011;65301;46.666;20.110;2022-12-11T09:00:08;9.53;;;6.57;;
76463;SDS011;65301;46.666;20.110;2022-12-11T09:03:12;11.77;;;6.30;;
76463;SDS011;65301;46.666;20.110;2022-12-11T09:06:15;12.25;;;6.75;;
76463;SDS011;65301;46.666;20.110;2022-12-11T09:09:18;10.15;;;6.18;;
76463;SDS011;65301;46.666;20.110;2022-12-11T09:12:20;10.30;;;6.25;;
76463;SDS011;65301;46.666;20.110;2022-12-11T09:15:21;14.97;;;7.50;;
76463;SDS011;65301;46.666;20.110;2022-12-11T09:18:23;11.70;;;6.80;;
76463;SDS011;65301;46.666;20.110;2022-12-11T09:21:26;12.98;;;7.10;;
76463;SDS011;65301;46.666;20.110;2022-12-11T09:24:30;10.13;;;6.47;;
76463;SDS011;65301;46.666;20.110;2022-12-11T09:27:32;11.38;;;6.40;;
76463;SDS011;65301;46.666;20.110;2022-12-11T09:30:35;10.40;;;6.40;;
76463;SDS011;65301;46.666;20.110;2022-12-11T09:33:37;11.67;;;5.80;;
76463;SDS011;65301;46.666;20.110;2022-12-11T09:36:40;8.52;;;5.68;;
76463;SDS011;65301;46.666;20.110;2022-12-11T09:39:42;10.68;;;6.40;;
76463;SDS011;65301;46.666;20.110;2022-12-11T09:42:58;14.70;;;8.73;;
76463;SDS011;65301;46.666;20.110;2022-12-11T09:46:09;13.83;;;8.27;;
76463;SDS011;65301;46.666;20.110;2022-12-11T09:49:21;9.43;;;6.53;;
76463;SDS011;65301;46.666;20.110;2022-12-11T09:52:34;10.30;;;6.80;;
76463;SDS011;65301;46.666;20.110;2022-12-11T09:55:58;19.73;;;10.20;;
76463;SDS011;65301;46.666;20.110;2022-12-11T09:59:31;28.25;;;14.77;;
76463;SDS011;65301;46.666;20.110;2022-12-11T10:09:21;12.20;;;8.07;;
76463;SDS011;65301;46.666;20.110;2022-12-11T10:19:02;12.83;;;7.60;;
76463;SDS011;65301;46.666;20.110;2022-12-11T10:22:07;11.57;;;6.47;;
76463;SDS011;65301;46.666;20.110;2022-12-11T10:25:18;15.57;;;8.55;;
76463;SDS011;65301;46.666;20.110;2022-12-11T10:28:32;15.85;;;7.95;;
76463;SDS011;65301;46.666;20.110;2022-12-11T10:35:32;13.13;;;8.73;;
76463;SDS011;65301;46.666;20.110;2022-12-11T10:38:42;27.70;;;11.40;;
76463;SDS011;65301;46.666;20.110;2022-12-11T10:41:46;49.65;;;21.58;;
76463;SDS011;65301;46.666;20.110;2022-12-11T10:45:00;26.80;;;13.32;;
76463;SDS011;65301;46.666;20.110;2022-12-11T10:48:05;18.67;;;11.25;;
76463;SDS011;65301;46.666;20.110;2022-12-11T10:51:10;19.80;;;11.27;;
76463;SDS011;65301;46.666;20.110;2022-12-11T10:54:16;33.07;;;16.17;;
76463;SDS011;65301;46.666;20.110;2022-12-11T10:57:33;26.40;;;13.93;;
76463;SDS011;65301;46.666;20.110;2022-12-11T11:00:38;11.80;;;8.43;;
76463;SDS011;65301;46.666;20.110;2022-12-11T11:03:51;15.27;;;8.50;;
76463;SDS011;65301;46.666;20.110;2022-12-11T11:07:10;14.77;;;8.57;;
76463;SDS011;65301;46.666;20.110;2022-12-11T11:10:14;13.47;;;8.70;;
76463;SDS011;65301;46.666;20.110;2022-12-11T11:13:19;17.33;;;8.50;;
76463;SDS011;65301;46.666;20.110;2022-12-11T11:16:22;13.30;;;8.25;;
76463;SDS011;65301;46.666;20.110;2022-12-11T11:19:28;12.57;;;7.95;;
76463;SDS011;65301;46.666;20.110;2022-12-11T11:22:32;13.97;;;8.03;;
76463;SDS011;65301;46.666;20.110;2022-12-11T11:25:34;16.77;;;9.13;;
76463;SDS011;65301;46.666;20.110;2022-12-11T11:28:46;12.68;;;8.55;;
76463;SDS011;65301;46.666;20.110;2022-12-11T11:31:50;11.77;;;7.97;;
76463;SDS011;65301;46.666;20.110;2022-12-11T11:34:51;11.60;;;8.00;;
76463;SDS011;65301;46.666;20.110;2022-12-11T11:38:16;11.87;;;8.07;;
76463;SDS011;65301;46.666;20.110;2022-12-11T11:41:23;12.50;;;8.07;;
76463;SDS011;65301;46.666;20.110;2022-12-11T11:44:30;9.93;;;6.38;;
76463;SDS011;65301;46.666;20.110;2022-12-11T11:47:39;9.68;;;6.35;;
76463;SDS011;65301;46.666;20.110;2022-12-11T11:50:51;13.68;;;8.32;;
76463;SDS011;65301;46.666;20.110;2022-12-11T11:53:55;12.43;;;8.13;;
76463;SDS011;65301;46.666;20.110;2022-12-11T11:57:00;9.50;;;6.20;;
76463;SDS011;65301;46.666;20.110;2022-12-11T12:03:17;11.68;;;7.15;;
76463;SDS011;65301;46.666;20.110;2022-12-11T12:06:24;15.70;;;8.70;;
76463;SDS011;65301;46.666;20.110;2022-12-11T12:13:02;12.90;;;7.53;;
76463;SDS011;65301;46.666;20.110;2022-12-11T12:16:38;15.45;;;8.45;;
76463;SDS011;65301;46.666;20.110;2022-12-11T12:19:57;16.02;;;8.68;;
76463;SDS011;65301;46.666;20.110;2022-12-11T12:26:26;13.93;;;8.93;;
76463;SDS011;65301;46.666;20.110;2022-12-11T12:36:06;25.65;;;12.75;;
76463;SDS011;65301;46.666;20.110;2022-12-11T12:39:25;16.60;;;10.35;;
76463;SDS011;65301;46.666;20.110;2022-12-11T12:49:39;10.77;;;6.68;;
76463;SDS011;65301;46.666;20.110;2022-12-11T12:52:42;18.85;;;10.00;;
76463;SDS011;65301;46.666;20.110;2022-12-11T12:55:45;23.13;;;12.13;;
76463;SDS011;65301;46.666;20.110;2022-12-11T12:58:48;17.93;;;10.90;;
76463;SDS011;65301;46.666;20.110;2022-12-11T13:01:52;12.23;;;7.90;;
76463;SDS011;65301;46.666;20.110;2022-12-11T13:04:59;13.40;;;8.70;;
76463;SDS011;65301;46.666;20.110;2022-12-11T13:08:06;20.60;;;9.55;;
76463;SDS011;65301;46.666;20.110;2022-12-11T13:11:09;16.92;;;10.52;;
76463;SDS011;65301;46.666;20.110;2022-12-11T13:20:26;20.30;;;12.95;;
76463;SDS011;65301;46.666;20.110;2022-12-11T13:23:31;18.88;;;10.75;;
76463;SDS011;65301;46.666;20.110;2022-12-11T13:26:34;19.05;;;10.68;;
76463;SDS011;65301;46.666;20.110;2022-12-11T13:29:39;22.90;;;13.23;;
76463;SDS011;65301;46.666;20.110;2022-12-11T13:32:43;16.47;;;10.50;;
76463;SDS011;65301;46.666;20.110;2022-12-11T13:39:22;16.27;;;8.70;;
76463;SDS011;65301;46.666;20.110;2022-12-11T13:48:46;12.33;;;8.20;;
76463;SDS011;65301;46.666;20.110;2022-12-11T13:51:57;12.05;;;7.70;;
76463;SDS011;65301;46.666;20.110;2022-12-11T13:55:00;12.80;;;8.32;;
76463;SDS011;65301;46.666;20.110;2022-12-11T13:58:02;11.55;;;7.35;;
76463;SDS011;65301;46.666;20.110;2022-12-11T14:04:07;12.27;;;7.07;;
76463;SDS011;65301;46.666;20.110;2022-12-11T14:07:14;8.57;;;5.65;;
76463;SDS011;65301;46.666;20.110;2022-12-11T14:10:29;8.10;;;5.50;;
76463;SDS011;65301;46.666;20.110;2022-12-11T14:13:33;10.07;;;5.97;;
76463;SDS011;65301;46.666;20.110;2022-12-11T14:16:37;12.43;;;7.63;;
76463;SDS011;65301;46.666;20.110;2022-12-11T14:19:43;12.33;;;6.60;;
76463;SDS011;65301;46.666;20.110;2022-12-11T14:22:47;14.77;;;8.93;;
76463;SDS011;65301;46.666;20.110;2022-12-11T14:32:32;12.67;;;7.33;;
76463;SDS011;65301;46.666;20.110;2022-12-11T14:35:38;14.90;;;8.50;;
76463;SDS011;65301;46.666;20.110;2022-12-11T14:38:43;15.73;;;8.73;;
76463;SDS011;65301;46.666;20.110;2022-12-11T14:41:49;10.73;;;7.22;;
76463;SDS011;65301;46.666;20.110;2022-12-11T14:45:11;10.23;;;7.43;;
76463;SDS011;65301;46.666;20.110;2022-12-11T14:48:22;12.93;;;7.67;;
76463;SDS011;65301;46.666;20.110;2022-12-11T14:51:29;20.97;;;10.40;;
76463;SDS011;65301;46.666;20.110;2022-12-11T14:54:37;17.55;;;9.57;;
76463;SDS011;65301;46.666;20.110;2022-12-11T14:57:43;16.30;;;9.43;;
76463;SDS011;65301;46.666;20.110;2022-12-11T15:00:58;16.02;;;8.30;;
76463;SDS011;65301;46.666;20.110;2022-12-11T15:07:02;13.37;;;8.53;;
76463;SDS011;65301;46.666;20.110;2022-12-11T15:13:31;22.42;;;11.25;;
76463;SDS011;65301;46.666;20.110;2022-12-11T15:16:36;15.80;;;10.57;;
76463;SDS011;65301;46.666;20.110;2022-12-11T15:19:40;15.63;;;9.00;;
76463;SDS011;65301;46.666;20.110;2022-12-11T15:22:53;12.77;;;7.67;;
76463;SDS011;65301;46.666;20.110;2022-12-11T15:25:58;11.18;;;8.07;;
76463;SDS011;65301;46.666;20.110;2022-12-11T15:32:33;12.05;;;7.60;;
76463;SDS011;65301;46.666;20.110;2022-12-11T15:35:35;12.47;;;7.30;;
76463;SDS011;65301;46.666;20.110;2022-12-11T15:38:38;13.17;;;7.60;;
76463;SDS011;65301;46.666;20.110;2022-12-11T15:41:42;12.65;;;8.38;;
76463;SDS011;65301;46.666;20.110;2022-12-11T15:44:44;11.13;;;7.60;;
76463;SDS011;65301;46.666;20.110;2022-12-11T15:47:46;11.55;;;7.75;;
76463;SDS011;65301;46.666;20.110;2022-12-11T15:50:49;25.27;;;13.43;;
76463;SDS011;65301;46.666;20.110;2022-12-11T15:53:51;63.87;;;27.30;;
76463;SDS011;65301;46.666;20.110;2022-12-11T15:56:53;74.13;;;30.90;;
76463;SDS011;65301;46.666;20.110;2022-12-11T15:59:55;76.85;;;31.15;;
76463;SDS011;65301;46.666;20.110;2022-12-11T16:02:58;57.45;;;25.73;;
76463;SDS011;65301;46.666;20.110;2022-12-11T16:06:00;60.00;;;26.20;;
76463;SDS011;65301;46.666;20.110;2022-12-11T16:09:02;58.93;;;26.83;;
76463;SDS011;65301;46.666;20.110;2022-12-11T16:12:05;61.97;;;26.98;;
76463;SDS011;65301;46.666;20.110;2022-12-11T16:15:07;60.97;;;28.13;;
76463;SDS011;65301;46.666;20.110;2022-12-11T16:18:13;54.40;;;27.17;;
76463;SDS011;65301;46.666;20.110;2022-12-11T16:21:17;62.57;;;29.10;;
76463;SDS011;65301;46.666;20.110;2022-12-11T16:24:22;62.00;;;29.27;;
76463;SDS011;65301;46.666;20.110;2022-12-11T16:27:23;48.45;;;24.55;;
76463;SDS011;65301;46.666;20.110;2022-12-11T16:30:27;42.47;;;23.27;;
76463;SDS011;65301;46.666;20.110;2022-12-11T16:33:29;38.08;;;22.35;;
76463;SDS011;65301;46.666;20.110;2022-12-11T16:36:31;35.27;;;21.40;;
76463;SDS011;65301;46.666;20.110;2022-12-11T16:39:33;38.20;;;21.43;;
76463;SDS011;65301;46.666;20.110;2022-12-11T16:42:37;37.55;;;23.10;;
76463;SDS011;65301;46.666;20.110;2022-12-11T16:45:39;34.85;;;21.73;;
76463;SDS011;65301;46.666;20.110;2022-12-11T16:48:43;33.55;;;20.17;;
76463;SDS011;65301;46.666;20.110;2022-12-11T16:51:48;33.90;;;19.17;;
76463;SDS011;65301;46.666;20.110;2022-12-11T16:54:50;32.07;;;19.17;;
76463;SDS011;65301;46.666;20.110;2022-12-11T16:57:51;29.98;;;18.88;;
76463;SDS011;65301;46.666;20.110;2022-12-11T17:00:58;29.75;;;17.98;;
76463;SDS011;65301;46.666;20.110;2022-12-11T17:04:02;38.47;;;21.52;;
76463;SDS011;65301;46.666;20.110;2022-12-11T17:07:04;37.50;;;22.00;;
76463;SDS011;65301;46.666;20.110;2022-12-11T17:10:06;30.20;;;18.27;;
76463;SDS011;65301;46.666;20.110;2022-12-11T17:13:08;30.38;;;18.33;;
76463;SDS011;65301;46.666;20.110;2022-12-11T17:16:11;27.85;;;16.45;;
76463;SDS011;65301;46.666;20.110;2022-12-11T17:19:17;24.80;;;14.35;;
76463;SDS011;65301;46.666;20.110;2022-12-11T17:22:20;18.60;;;11.83;;
76463;SDS011;65301;46.666;20.110;2022-12-11T17:25:22;18.80;;;10.50;;
76463;SDS011;65301;46.666;20.110;2022-12-11T17:28:24;16.73;;;9.40;;
76463;SDS011;65301;46.666;20.110;2022-12-11T17:31:26;17.08;;;10.38;;
76463;SDS011;65301;46.666;20.110;2022-12-11T17:34:28;20.05;;;9.35;;
76463;SDS011;65301;46.666;20.110;2022-12-11T17:37:38;15.90;;;9.20;;
76463;SDS011;65301;46.666;20.110;2022-12-11T17:40:42;16.10;;;9.53;;
76463;SDS011;65301;46.666;20.110;2022-12-11T17:43:44;16.65;;;9.90;;
76463;SDS011;65301;46.666;20.110;2022-12-11T17:46:46;18.98;;;10.35;;
76463;SDS011;65301;46.666;20.110;2022-12-11T17:49:48;15.23;;;9.60;;
76463;SDS011;65301;46.666;20.110;2022-12-11T17:52:49;20.60;;;10.60;;
76463;SDS011;65301;46.666;20.110;2022-12-11T17:55:52;14.97;;;9.13;;
76463;SDS011;65301;46.666;20.110;2022-12-11T17:58:54;29.40;;;12.60;;
76463;SDS011;65301;46.666;20.110;2022-12-11T18:01:56;25.95;;;12.88;;
76463;SDS011;65301;46.666;20.110;2022-12-11T18:04:58;22.95;;;12.93;;
76463;SDS011;65301;46.666;20.110;2022-12-11T18:08:00;23.10;;;12.20;;
76463;SDS011;65301;46.666;20.110;2022-12-11T18:11:06;28.47;;;15.57;;
76463;SDS011;65301;46.666;20.110;2022-12-11T18:14:10;24.25;;;14.27;;
76463;SDS011;65301;46.666;20.110;2022-12-11T18:17:17;29.00;;;13.48;;
76463;SDS011;65301;46.666;20.110;2022-12-11T18:20:23;31.30;;;14.25;;
76463;SDS011;65301;46.666;20.110;2022-12-11T18:23:25;21.50;;;12.40;;
76463;SDS011;65301;46.666;20.110;2022-12-11T18:26:27;17.73;;;11.67;;
76463;SDS011;65301;46.666;20.110;2022-12-11T18:29:29;19.77;;;11.55;;
76463;SDS011;65301;46.666;20.110;2022-12-11T18:32:31;19.15;;;11.63;;
76463;SDS011;65301;46.666;20.110;2022-12-11T18:35:33;16.98;;;11.55;;
76463;SDS011;65301;46.666;20.110;2022-12-11T18:38:35;25.10;;;12.87;;
76463;SDS011;65301;46.666;20.110;2022-12-11T18:41:38;32.33;;;15.73;;
76463;SDS011;65301;46.666;20.110;2022-12-11T18:44:41;23.08;;;12.27;;
76463;SDS011;65301;46.666;20.110;2022-12-11T18:47:44;22.65;;;10.07;;
76463;SDS011;65301;46.666;20.110;2022-12-11T18:50:48;19.75;;;11.35;;
76463;SDS011;65301;46.666;20.110;2022-12-11T18:53:52;15.83;;;9.83;;
76463;SDS011;65301;46.666;20.110;2022-12-11T18:56:54;20.27;;;10.90;;
76463;SDS011;65301;46.666;20.110;2022-12-11T18:59:55;17.38;;;10.18;;
76463;SDS011;65301;46.666;20.110;2022-12-11T19:03:03;20.15;;;11.02;;
76463;SDS011;65301;46.666;20.110;2022-12-11T19:06:10;20.50;;;13.35;;
76463;SDS011;65301;46.666;20.110;2022-12-11T19:09:14;21.00;;;12.17;;
76463;SDS011;65301;46.666;20.110;2022-12-11T19:12:16;22.57;;;12.00;;
76463;SDS011;65301;46.666;20.110;2022-12-11T19:15:18;19.30;;;11.88;;
76463;SDS011;65301;46.666;20.110;2022-12-11T19:18:24;22.30;;;13.20;;
76463;SDS011;65301;46.666;20.110;2022-12-11T19:21:27;23.23;;;12.32;;
76463;SDS011;65301;46.666;20.110;2022-12-11T19:24:29;20.50;;;11.87;;
76463;SDS011;65301;46.666;20.110;2022-12-11T19:27:31;26.10;;;11.70;;
76463;SDS011;65301;46.666;20.110;2022-12-11T19:30:33;21.95;;;12.02;;